Time;durP1;ratioP1;P1;durP2;ratioP2;P2;SDS_P1;SDS_P2;PMS_P1;PMS_P2;Temp;Humidity;BMP_temperature;BMP_pressure;BME280_temperature;BME280_humidity;BME280_pressure;Samples;Min_cycle;Max_cycle;Signal;HPM_P1;HPM_P2
2023/12/09 00:00:19;;;;;;;;;;;;;;;;;;5059351;28;19925;-74
2023/12/09 00:02:45;;;;;;;;;;;;;;;;;;5067091;28;19936;-73
2023/12/09 00:05:12;;;;;;;;;;;;;;;;;;5062044;28;20451;-74
2023/12/09 00:07:38;;;;;;;;;;;;;;;;;;5070553;28;19963;-74
2023/12/09 00:10:05;;;;;;;;;;;;;;;;;;5064253;28;19925;-73
2023/12/09 00:12:31;;;;;;;;;;;;;;;;;;5071070;28;19925;-73
2023/12/09 00:14:57;;;;;;;;;;;;;;;;;;5068353;28;19929;-75
2023/12/09 00:17:24;;;;;;;;;;;;;;;;;;5061648;28;19924;-75
2023/12/09 00:19:50;;;;;;;;;;;;;;;;;;5061678;28;19925;-73
2023/12/09 00:22:17;;;;;;;;;;;;;;;;;;5059240;28;19970;-74
2023/12/09 00:24:43;;;;;;;;;;;;;;;;;;5061747;28;19925;-73
2023/12/09 00:27:09;;;;;;;;;;;;;;;;;;5066207;28;19930;-72
2023/12/09 00:29:36;;;;;;;;;;;;;;;;;;5063495;28;20335;-74
2023/12/09 00:32:02;;;;;;;;;;;;;;;;;;5060510;28;19929;-72
2023/12/09 00:34:29;;;;;;;;;;;;;;;;;;5060990;28;19970;-74
2023/12/09 00:36:55;;;;;;;;;;;;;;;;;;5050845;28;20308;-73
2023/12/09 00:39:21;;;;;;;;;;;;;;;;;;5057452;28;20303;-72
2023/12/09 00:41:48;;;;;;;;;;;;;;;;;;5065306;28;19924;-75
2023/12/09 00:44:17;;;;;;;;;;;;;;;;;;5061059;28;19932;-74
2023/12/09 00:46:43;;;;;;;;;;;;;;;;;;5069712;28;19929;-73
2023/12/09 00:49:10;;;;;;;;;;;;;;;;;;5063547;28;19944;-72
2023/12/09 00:51:36;;;;;;;;;;;;;;;;;;5062570;28;19937;-72
2023/12/09 00:54:03;;;;;;;;;;;;;;;;;;5065045;28;20432;-72
2023/12/09 00:56:29;;;;;;;;;;;;;;;;;;5068358;28;19929;-73
2023/12/09 00:58:59;;;;;;;;;;;;;;;;;;5059621;28;19925;-75
2023/12/09 01:01:26;;;;;;;;;;;;;;;;;;5070911;28;19944;-73
2023/12/09 01:03:52;;;;;;;;;;;;;;;;;;5063569;28;20384;-73
2023/12/09 01:06:19;;;;;;;;;;;;;;;;;;5064648;28;19932;-73
2023/12/09 01:08:45;;;;;;;;;;;;;;;;;;5067682;28;20039;-73
2023/12/09 01:11:11;;;;;;;;;;;;;;;;;;5065323;28;19933;-72
2023/12/09 01:13:38;;;;;;;;;;;;;;;;;;5072340;28;19997;-71
2023/12/09 01:16:04;;;;;;;;;;;;;;;;;;5072333;28;19924;-70
2023/12/09 01:18:31;;;;;;;;;;;;;;;;;;5066033;28;20395;-72
2023/12/09 01:20:57;;;;;;;;;;;;;;;;;;5069705;28;19924;-74
2023/12/09 01:23:23;;;;;;;;;;;;;;;;;;5071250;28;19929;-73
2023/12/09 01:25:50;;;;;;;;;;;;;;;;;;5068174;28;19925;-76
2023/12/09 01:28:16;;;;;;;;;;;;;;;;;;5069695;28;19929;-74
2023/12/09 01:30:43;;;;;;;;;;;;;;;;;;5046359;28;19967;-76
2023/12/09 01:33:10;;;;;;;;;;;;;;;;;;5064576;28;19933;-75
2023/12/09 01:35:36;;;;;;;;;;;;;;;;;;5064332;28;19925;-76
2023/12/09 01:38:03;;;;;;;;;;;;;;;;;;5059654;28;19931;-76
2023/12/09 01:40:29;;;;;;;;;;;;;;;;;;5064521;28;19924;-76
2023/12/09 01:42:55;;;;;;;;;;;;;;;;;;5067224;28;19950;-75
2023/12/09 01:45:22;;;;;;;;;;;;;;;;;;5063766;28;19933;-76
2023/12/09 01:47:48;;;;;;;;;;;;;;;;;;5059639;28;19931;-76
2023/12/09 01:50:15;;;;;;;;;;;;;;;;;;5063521;28;20404;-76
2023/12/09 01:52:41;;;;;;;;;;;;;;;;;;5054792;28;19929;-74
2023/12/09 01:55:08;;;;;;;;;;;;;;;;;;5061021;28;20020;-73
2023/12/09 01:57:34;;;;;;;;;;;;;;;;;;5064311;28;19935;-73
2023/12/09 02:00:01;;;;;;;;;;;;;;;;;;5062871;28;19964;-73
2023/12/09 02:02:29;;;;;;;;;;;;;;;;;;5062480;28;19986;-73
2023/12/09 02:04:56;;;;;;;;;;;;;;;;;;5064298;28;19951;-73
2023/12/09 02:07:22;;;;;;;;;;;;;;;;;;5054305;28;19925;-73
2023/12/09 02:09:49;;;;;;;;;;;;;;;;;;5060962;28;19928;-73
2023/12/09 02:12:15;;;;;;;;;;;;;;;;;;5070248;28;19935;-73
2023/12/09 02:14:41;;;;;;;;;;;;;;;;;;5062524;28;19936;-74
2023/12/09 02:17:08;;;;;;;;;;;;;;;;;;5063442;28;20015;-74
2023/12/09 02:19:34;;;;;;;;;;;;;;;;;;5064132;28;19924;-72
2023/12/09 02:22:01;;;;;;;;;;;;;;;;;;5062440;28;19925;-72
2023/12/09 02:24:27;;;;;;;;;;;;;;;;;;5061671;28;20364;-75
2023/12/09 02:26:54;;;;;;;;;;;;;;;;;;5063859;28;20396;-73
2023/12/09 02:29:20;;;;;;;;;;;;;;;;;;5061892;28;19932;-74
2023/12/09 02:31:46;;;;;;;;;;;;;;;;;;5061843;28;20407;-73
2023/12/09 02:34:13;;;;;;;;;;;;;;;;;;5058156;28;19924;-73
2023/12/09 02:36:39;;;;;;;;;;;;;;;;;;5064775;28;19925;-73
2023/12/09 02:39:06;;;;;;;;;;;;;;;;;;5064377;28;19924;-73
2023/12/09 02:41:32;;;;;;;;;;;;;;;;;;5062853;28;19928;-73
2023/12/09 02:43:58;;;;;;;;;;;;;;;;;;5058672;28;19963;-72
2023/12/09 02:46:25;;;;;;;;;;;;;;;;;;5065622;28;20019;-72
2023/12/09 02:48:51;;;;;;;;;;;;;;;;;;5062687;28;19964;-74
2023/12/09 02:51:18;;;;;;;;;;;;;;;;;;5067739;28;19924;-73
2023/12/09 02:53:44;;;;;;;;;;;;;;;;;;5057751;28;20427;-73
2023/12/09 02:56:10;;;;;;;;;;;;;;;;;;5065677;28;19968;-72
2023/12/09 02:58:37;;;;;;;;;;;;;;;;;;5070690;28;19931;-74
2023/12/09 03:01:04;;;;;;;;;;;;;;;;;;5060844;28;20450;-72
2023/12/09 03:03:30;;;;;;;;;;;;;;;;;;5059196;28;20309;-73
2023/12/09 03:05:57;;;;;;;;;;;;;;;;;;5047291;28;19925;-74
2023/12/09 03:08:23;;;;;;;;;;;;;;;;;;5063293;28;19924;-73
2023/12/09 03:10:49;;;;;;;;;;;;;;;;;;5065752;28;19930;-73
2023/12/09 03:13:16;;;;;;;;;;;;;;;;;;5061350;28;19948;-73
2023/12/09 03:15:42;;;;;;;;;;;;;;;;;;5062714;28;20015;-73
2023/12/09 03:18:08;;;;;;;;;;;;;;;;;;5052701;28;20425;-73
2023/12/09 03:20:35;;;;;;;;;;;;;;;;;;5058566;28;19951;-73
2023/12/09 03:23:01;;;;;;;;;;;;;;;;;;5063916;28;19929;-72
2023/12/09 03:25:28;;;;;;;;;;;;;;;;;;5060685;28;20403;-71
2023/12/09 03:27:54;;;;;;;;;;;;;;;;;;5069153;28;19924;-72
2023/12/09 03:30:22;;;;;;;;;;;;;;;;;;5062636;28;19925;-73
2023/12/09 03:32:48;;;;;;;;;;;;;;;;;;5063179;28;19925;-72
2023/12/09 03:35:15;;;;;;;;;;;;;;;;;;5069804;28;19973;-72
2023/12/09 03:37:41;;;;;;;;;;;;;;;;;;5070259;28;20403;-72
2023/12/09 03:40:10;;;;;;;;;;;;;;;;;;5062512;28;19928;-73
2023/12/09 03:42:36;;;;;;;;;;;;;;;;;;5060053;28;19924;-74
2023/12/09 03:45:02;;;;;;;;;;;;;;;;;;5055948;28;20382;-73
2023/12/09 03:47:29;;;;;;;;;;;;;;;;;;5068926;28;19935;-71
2023/12/09 03:49:55;;;;;;;;;;;;;;;;;;5061196;28;19928;-73
2023/12/09 03:52:22;;;;;;;;;;;;;;;;;;5062291;28;19967;-73
2023/12/09 03:54:48;;;;;;;;;;;;;;;;;;5066726;28;19929;-72
2023/12/09 03:57:14;;;;;;;;;;;;;;;;;;5070259;28;19931;-73
2023/12/09 03:59:41;;;;;;;;;;;;;;;;;;5070957;28;19928;-74
2023/12/09 04:02:07;;;;;;;;;;;;;;;;;;5062016;28;20015;-73
2023/12/09 04:04:34;;;;;;;;;;;;;;;;;;5064931;28;19933;-73
2023/12/09 04:07:01;;;;;;;;;;;;;;;;;;5069475;28;20365;-74
2023/12/09 04:09:27;;;;;;;;;;;;;;;;;;5060645;28;20304;-71
2023/12/09 04:11:54;;;;;;;;;;;;;;;;;;5062476;28;20309;-74
2023/12/09 04:14:20;;;;;;;;;;;;;;;;;;5069863;28;20011;-73
2023/12/09 04:16:47;;;;;;;;;;;;;;;;;;5058454;28;19982;-74
2023/12/09 04:19:14;;;;;;;;;;;;;;;;;;5061667;28;19929;-73
2023/12/09 04:21:40;;;;;;;;;;;;;;;;;;5061969;28;20025;-72
2023/12/09 04:24:07;;;;;;;;;;;;;;;;;;5062900;28;19929;-72
2023/12/09 04:26:34;;;;;;;;;;;;;;;;;;5062270;28;19955;-74
2023/12/09 04:29:00;;;;;;;;;;;;;;;;;;5064805;28;19936;-72
2023/12/09 04:31:27;;;;;;;;;;;;;;;;;;5063768;28;19924;-75
2023/12/09 04:33:53;;;;;;;;;;;;;;;;;;5066884;28;19925;-73
2023/12/09 04:36:19;;;;;;;;;;;;;;;;;;5068252;28;20024;-72
2023/12/09 04:38:46;;;;;;;;;;;;;;;;;;5059436;28;19928;-75
2023/12/09 04:41:12;;;;;;;;;;;;;;;;;;5063988;28;19982;-73
2023/12/09 04:43:38;;;;;;;;;;;;;;;;;;5061257;28;19932;-74
2023/12/09 04:46:05;;;;;;;;;;;;;;;;;;5062234;28;19935;-74
2023/12/09 04:48:31;;;;;;;;;;;;;;;;;;5052170;28;19959;-74
2023/12/09 04:50:58;;;;;;;;;;;;;;;;;;5057071;28;19929;-72
2023/12/09 04:53:24;;;;;;;;;;;;;;;;;;5062531;28;19928;-74
2023/12/09 04:55:50;;;;;;;;;;;;;;;;;;5058988;28;19925;-73
2023/12/09 04:58:17;;;;;;;;;;;;;;;;;;5060804;28;20024;-73
2023/12/09 05:00:43;;;;;;;;;;;;;;;;;;5059776;28;19928;-72
2023/12/09 05:03:09;;;;;;;;;;;;;;;;;;5061192;28;20360;-73
2023/12/09 05:05:36;;;;;;;;;;;;;;;;;;5049881;28;20436;-71
2023/12/09 05:08:04;;;;;;;;;;;;;;;;;;5061101;28;19975;-73
2023/12/09 05:10:30;;;;;;;;;;;;;;;;;;5059491;28;20340;-72
2023/12/09 05:12:57;;;;;;;;;;;;;;;;;;5062691;28;20039;-72
2023/12/09 05:15:23;;;;;;;;;;;;;;;;;;5060918;28;19924;-72
2023/12/09 05:17:49;;;;;;;;;;;;;;;;;;5054253;28;20011;-72
2023/12/09 05:20:16;;;;;;;;;;;;;;;;;;5067655;28;19924;-71
2023/12/09 05:22:42;;;;;;;;;;;;;;;;;;5061209;28;19931;-74
2023/12/09 05:25:08;;;;;;;;;;;;;;;;;;5068307;28;19925;-73
2023/12/09 05:27:35;;;;;;;;;;;;;;;;;;5067708;28;19929;-73
2023/12/09 05:30:01;;;;;;;;;;;;;;;;;;5059039;28;19925;-73
2023/12/09 05:32:28;;;;;;;;;;;;;;;;;;5066569;28;19931;-73
2023/12/09 05:34:54;;;;;;;;;;;;;;;;;;5062120;28;19978;-73
2023/12/09 05:37:21;;;;;;;;;;;;;;;;;;5060710;28;19924;-74
2023/12/09 05:39:47;;;;;;;;;;;;;;;;;;5060483;28;19974;-74
2023/12/09 05:42:13;;;;;;;;;;;;;;;;;;5059530;28;19932;-74
2023/12/09 05:44:40;;;;;;;;;;;;;;;;;;5069671;28;19929;-72
2023/12/09 05:47:06;;;;;;;;;;;;;;;;;;5064443;28;19924;-73
2023/12/09 05:49:32;;;;;;;;;;;;;;;;;;5062486;28;19936;-72
2023/12/09 05:51:59;;;;;;;;;;;;;;;;;;5070560;28;19925;-74
2023/12/09 05:54:26;;;;;;;;;;;;;;;;;;5062719;28;19974;-74
2023/12/09 05:56:52;;;;;;;;;;;;;;;;;;5065881;28;19931;-75
2023/12/09 05:59:18;;;;;;;;;;;;;;;;;;5064515;28;20378;-74
2023/12/09 06:01:45;;;;;;;;;;;;;;;;;;5071583;28;19930;-74
2023/12/09 06:04:11;;;;;;;;;;;;;;;;;;5064998;28;20024;-73
2023/12/09 06:06:38;;;;;;;;;;;;;;;;;;5065158;28;19924;-71
2023/12/09 06:09:04;;;;;;;;;;;;;;;;;;5067665;28;19951;-73
2023/12/09 06:11:31;;;;;;;;;;;;;;;;;;5064519;28;19929;-74
2023/12/09 06:13:58;;;;;;;;;;;;;;;;;;5064065;28;20464;-73
2023/12/09 06:16:24;;;;;;;;;;;;;;;;;;5065948;28;19929;-73
2023/12/09 06:18:50;;;;;;;;;;;;;;;;;;5063124;28;19928;-72
2023/12/09 06:21:17;;;;;;;;;;;;;;;;;;5051399;28;19924;-75
2023/12/09 06:23:43;;;;;;;;;;;;;;;;;;5063207;28;20349;-74
2023/12/09 06:26:09;;;;;;;;;;;;;;;;;;5068629;28;19974;-72
2023/12/09 06:28:36;;;;;;;;;;;;;;;;;;5061466;28;19964;-73
2023/12/09 06:31:02;;;;;;;;;;;;;;;;;;5067140;28;19949;-72
2023/12/09 06:33:28;;;;;;;;;;;;;;;;;;5063499;28;19974;-72
2023/12/09 06:35:55;;;;;;;;;;;;;;;;;;5053639;28;19929;-73
2023/12/09 06:38:21;;;;;;;;;;;;;;;;;;5057600;28;19928;-72
2023/12/09 06:40:48;;;;;;;;;;;;;;;;;;5064116;28;19935;-74
2023/12/09 06:43:14;;;;;;;;;;;;;;;;;;5070220;28;20007;-72
2023/12/09 06:45:41;;;;;;;;;;;;;;;;;;5058567;28;19925;-74
2023/12/09 06:48:07;;;;;;;;;;;;;;;;;;5053858;28;19928;-74
2023/12/09 06:50:34;;;;;;;;;;;;;;;;;;5061136;28;19933;-74
2023/12/09 06:53:03;;;;;;;;;;;;;;;;;;5059870;28;20020;-74
2023/12/09 06:55:29;;;;;;;;;;;;;;;;;;5068966;28;20024;-74
2023/12/09 06:57:56;;;;;;;;;;;;;;;;;;5069382;28;19931;-74
2023/12/09 07:00:23;;;;;;;;;;;;;;;;;;5059930;28;20016;-74
2023/12/09 07:02:49;;;;;;;;;;;;;;;;;;5067214;28;19928;-73
2023/12/09 07:05:24;;;;;;;;;;;;;;;;;;5061958;28;20029;-74
2023/12/09 07:07:50;;;;;;;;;;;;;;;;;;5067680;28;19959;-70
2023/12/09 07:10:17;;;;;;;;;;;;;;;;;;5062471;28;19951;-75
2023/12/09 07:12:43;;;;;;;;;;;;;;;;;;5062643;28;20277;-77
2023/12/09 07:15:11;;;;;;;;;;;;;;;;;;5067968;28;20023;-73
2023/12/09 07:17:38;;;;;;;;;;;;;;;;;;5064178;28;20289;-74
2023/12/09 07:20:05;;;;;;;;;;;;;;;;;;5061267;28;19982;-73
2023/12/09 07:22:32;;;;;;;;;;;;;;;;;;5062325;28;19925;-72
2023/12/09 07:24:58;;;;;;;;;;;;;;;;;;5068057;28;19935;-74
2023/12/09 07:27:25;;;;;;;;;;;;;;;;;;5061612;28;19939;-72
2023/12/09 07:29:51;;;;;;;;;;;;;;;;;;5064249;28;20301;-74
2023/12/09 07:32:18;;;;;;;;;;;;;;;;;;5064173;28;20378;-74
2023/12/09 07:34:44;;;;;;;;;;;;;;;;;;5063807;28;20143;-74
2023/12/09 07:37:14;;;;;;;;;;;;;;;;;;5059983;28;19971;-74
2023/12/09 07:39:40;;;;;;;;;;;;;;;;;;5059549;28;20444;-74
2023/12/09 07:42:07;;;;;;;;;;;;;;;;;;5053000;28;19929;-73
2023/12/09 07:44:34;;;;;;;;;;;;;;;;;;5061338;28;19924;-75
2023/12/09 07:47:00;;;;;;;;;;;;;;;;;;5059686;28;20044;-72
2023/12/09 07:49:27;;;;;;;;;;;;;;;;;;5069809;28;19978;-75
2023/12/09 07:51:54;;;;;;;;;;;;;;;;;;5068954;28;19932;-73
2023/12/09 07:54:20;;;;;;;;;;;;;;;;;;5067243;28;20015;-72
2023/12/09 07:56:47;;;;;;;;;;;;;;;;;;5058825;28;19925;-73
2023/12/09 07:59:13;;;;;;;;;;;;;;;;;;5070916;28;19924;-72
2023/12/09 08:01:40;;;;;;;;;;;;;;;;;;5059630;28;19975;-74
2023/12/09 08:04:07;;;;;;;;;;;;;;;;;;5061858;28;19931;-71
2023/12/09 08:06:33;;;;;;;;;;;;;;;;;;5061563;28;19931;-73
2023/12/09 08:09:00;;;;;;;;;;;;;;;;;;5055453;28;19925;-72
2023/12/09 08:11:26;;;;;;;;;;;;;;;;;;5063295;28;19925;-73
2023/12/09 08:13:52;;;;;;;;;;;;;;;;;;5060225;28;19971;-74
2023/12/09 08:16:19;;;;;;;;;;;;;;;;;;5062348;28;19935;-72
2023/12/09 08:18:46;;;;;;;;;;;;;;;;;;5064527;28;19933;-72
2023/12/09 08:21:12;;;;;;;;;;;;;;;;;;5058014;28;20377;-72
2023/12/09 08:23:39;;;;;;;;;;;;;;;;;;5057281;28;20664;-73
2023/12/09 08:26:05;;;;;;;;;;;;;;;;;;5052609;28;19938;-72
2023/12/09 08:28:32;;;;;;;;;;;;;;;;;;5066054;28;20016;-73
2023/12/09 08:30:58;;;;;;;;;;;;;;;;;;5068954;28;19963;-74
2023/12/09 08:33:24;;;;;;;;;;;;;;;;;;5062058;28;19932;-72
2023/12/09 08:35:51;;;;;;;;;;;;;;;;;;5061671;28;20019;-73
2023/12/09 08:38:17;;;;;;;;;;;;;;;;;;5056874;28;20023;-73
2023/12/09 08:40:44;;;;;;;;;;;;;;;;;;5068750;28;19929;-74
2023/12/09 08:43:10;;;;;;;;;;;;;;;;;;5061284;28;19929;-73
2023/12/09 08:45:37;;;;;;;;;;;;;;;;;;5059625;28;19935;-72
2023/12/09 08:48:03;;;;;;;;;;;;;;;;;;5070649;28;19970;-73
2023/12/09 08:50:30;;;;;;;;;;;;;;;;;;5057243;28;19925;-74
2023/12/09 08:52:56;;;;;;;;;;;;;;;;;;5061727;28;20300;-71
2023/12/09 08:55:23;;;;;;;;;;;;;;;;;;5061388;28;19936;-73
2023/12/09 08:57:51;;;;;;;;;;;;;;;;;;5053696;28;19956;-73
2023/12/09 09:00:20;;;;;;;;;;;;;;;;;;5060699;28;20329;-73
2023/12/09 09:02:48;;;;;;;;;;;;;;;;;;5061365;28;19925;-71
2023/12/09 09:05:15;;;;;;;;;;;;;;;;;;5060586;28;20332;-73
2023/12/09 09:07:41;;;;;;;;;;;;;;;;;;5059564;28;20322;-72
2023/12/09 09:10:08;;;;;;;;;;;;;;;;;;5063813;28;19935;-72
2023/12/09 09:12:34;;;;;;;;;;;;;;;;;;5057434;28;19931;-73
2023/12/09 09:15:01;;;;;;;;;;;;;;;;;;5063579;28;19963;-74
2023/12/09 09:17:30;;;;;;;;;;;;;;;;;;5061554;28;19929;-74
2023/12/09 09:19:57;;;;;;;;;;;;;;;;;;5064440;28;20019;-72
2023/12/09 09:22:23;;;;;;;;;;;;;;;;;;5064322;28;19964;-72
2023/12/09 09:24:51;;;;;;;;;;;;;;;;;;5058484;28;19932;-74
2023/12/09 09:27:18;;;;;;;;;;;;;;;;;;5066171;28;20035;-74
2023/12/09 09:29:45;;;;;;;;;;;;;;;;;;5067762;28;19925;-73
2023/12/09 09:32:12;;;;;;;;;;;;;;;;;;5070317;28;19925;-73
2023/12/09 09:34:38;;;;;;;;;;;;;;;;;;5072424;28;20044;-73
2023/12/09 09:37:05;;;;;;;;;;;;;;;;;;5069598;28;19968;-72
2023/12/09 09:39:31;;;;;;;;;;;;;;;;;;5068201;28;20395;-72
2023/12/09 09:41:58;;;;;;;;;;;;;;;;;;5068247;28;19928;-75
2023/12/09 09:44:24;;;;;;;;;;;;;;;;;;5060808;28;20011;-72
2023/12/09 09:46:52;;;;;;;;;;;;;;;;;;5060406;28;19968;-73
2023/12/09 09:49:18;;;;;;;;;;;;;;;;;;5063262;28;19925;-73
2023/12/09 09:51:45;;;;;;;;;;;;;;;;;;5065078;28;19954;-75
2023/12/09 09:54:12;;;;;;;;;;;;;;;;;;5049774;28;19925;-75
2023/12/09 09:56:38;;;;;;;;;;;;;;;;;;5070583;28;19924;-76
2023/12/09 09:59:05;;;;;;;;;;;;;;;;;;5065976;28;19924;-74
2023/12/09 10:01:32;;;;;;;;;;;;;;;;;;5048796;28;19951;-75
2023/12/09 10:03:58;;;;;;;;;;;;;;;;;;5060532;28;20846;-75
2023/12/09 10:06:25;;;;;;;;;;;;;;;;;;5070377;28;19924;-74
2023/12/09 10:08:51;;;;;;;;;;;;;;;;;;5063972;28;19929;-73
2023/12/09 10:11:18;;;;;;;;;;;;;;;;;;5064380;28;19935;-76
2023/12/09 10:13:45;;;;;;;;;;;;;;;;;;5063878;28;20380;-75
2023/12/09 10:16:11;;;;;;;;;;;;;;;;;;5061356;28;19924;-73
2023/12/09 10:18:38;;;;;;;;;;;;;;;;;;5063050;28;19928;-73
2023/12/09 10:21:04;;;;;;;;;;;;;;;;;;5062077;28;19925;-72
2023/12/09 10:23:31;;;;;;;;;;;;;;;;;;5071519;28;19928;-74
2023/12/09 10:25:58;;;;;;;;;;;;;;;;;;5063287;28;19928;-73
2023/12/09 10:28:24;;;;;;;;;;;;;;;;;;5067323;28;19931;-74
2023/12/09 10:30:50;;;;;;;;;;;;;;;;;;5066180;28;19928;-75
2023/12/09 10:33:17;;;;;;;;;;;;;;;;;;5070417;28;19928;-74
2023/12/09 10:35:44;;;;;;;;;;;;;;;;;;5064919;28;19991;-74
2023/12/09 10:38:11;;;;;;;;;;;;;;;;;;5061887;28;19924;-74
2023/12/09 10:40:38;;;;;;;;;;;;;;;;;;5063172;28;20020;-73
2023/12/09 10:43:04;;;;;;;;;;;;;;;;;;5066400;28;19963;-74
2023/12/09 10:45:31;;;;;;;;;;;;;;;;;;5060854;28;19928;-74
2023/12/09 10:47:58;;;;;;;;;;;;;;;;;;5060962;28;20391;-73
2023/12/09 10:50:24;;;;;;;;;;;;;;;;;;5063729;28;19929;-74
2023/12/09 10:52:50;;;;;;;;;;;;;;;;;;5062848;28;20385;-72
2023/12/09 10:55:19;;;;;;;;;;;;;;;;;;5063108;28;20433;-74
2023/12/09 10:57:45;;;;;;;;;;;;;;;;;;5061795;28;19967;-74
2023/12/09 11:00:14;;;;;;;;;;;;;;;;;;5063796;28;19924;-73
2023/12/09 11:02:41;;;;;;;;;;;;;;;;;;5067083;28;20011;-73
2023/12/09 11:05:07;;;;;;;;;;;;;;;;;;5063642;28;19935;-74
2023/12/09 11:07:36;;;;;;;;;;;;;;;;;;5078013;28;19929;-76
2023/12/09 11:10:02;;;;;;;;;;;;;;;;;;5089369;28;19955;-76
2023/12/09 11:12:28;;;;;;;;;;;;;;;;;;5083838;28;19927;-75
2023/12/09 11:14:55;;;;;;;;;;;;;;;;;;5080791;28;19956;-75
2023/12/09 11:17:22;;;;;;;;;;;;;;;;;;5075727;28;19932;-75
2023/12/09 11:19:48;;;;;;;;;;;;;;;;;;5083439;28;19960;-75
2023/12/09 11:22:15;;;;;;;;;;;;;;;;;;5066978;28;19925;-72
2023/12/09 11:24:41;;;;;;;;;;;;;;;;;;5063227;28;19924;-73
2023/12/09 11:27:08;;;;;;;;;;;;;;;;;;5049338;28;20029;-74
2023/12/09 11:29:34;;;;;;;;;;;;;;;;;;5057308;28;19964;-72
2023/12/09 11:32:01;;;;;;;;;;;;;;;;;;5059192;28;20304;-73
2023/12/09 11:34:28;;;;;;;;;;;;;;;;;;5070398;28;19931;-73
2023/12/09 11:36:54;;;;;;;;;;;;;;;;;;5062441;28;19931;-73
2023/12/09 11:39:20;;;;;;;;;;;;;;;;;;5064634;28;19924;-73
2023/12/09 11:41:47;;;;;;;;;;;;;;;;;;5064594;28;19924;-73
2023/12/09 11:44:14;;;;;;;;;;;;;;;;;;5067164;28;19925;-74
2023/12/09 11:46:40;;;;;;;;;;;;;;;;;;5056177;28;20284;-73
2023/12/09 11:49:06;;;;;;;;;;;;;;;;;;5060402;28;20284;-72
2023/12/09 11:51:34;;;;;;;;;;;;;;;;;;5060945;28;19925;-74
2023/12/09 11:54:01;;;;;;;;;;;;;;;;;;5062302;28;19928;-73
2023/12/09 11:56:27;;;;;;;;;;;;;;;;;;5057441;28;19971;-74
2023/12/09 11:58:53;;;;;;;;;;;;;;;;;;5059511;28;20066;-74
2023/12/09 12:01:20;;;;;;;;;;;;;;;;;;5062149;28;19935;-74
2023/12/09 12:03:47;;;;;;;;;;;;;;;;;;5058862;28;19971;-75
2023/12/09 12:06:15;;;;;;;;;;;;;;;;;;5057182;28;19925;-74
2023/12/09 12:08:42;;;;;;;;;;;;;;;;;;5066748;28;19964;-74
2023/12/09 12:11:08;;;;;;;;;;;;;;;;;;5065279;28;19925;-75
2023/12/09 12:13:34;;;;;;;;;;;;;;;;;;5056299;28;19925;-74
2023/12/09 12:16:01;;;;;;;;;;;;;;;;;;5056662;28;20021;-74
2023/12/09 12:18:27;;;;;;;;;;;;;;;;;;5060534;28;19931;-74
2023/12/09 12:20:54;;;;;;;;;;;;;;;;;;5047863;28;19925;-75
2023/12/09 12:23:20;;;;;;;;;;;;;;;;;;5065996;28;20392;-76
2023/12/09 12:25:55;;;;;;;;;;;;;;;;;;5057903;28;19932;-76
2023/12/09 12:28:22;;;;;;;;;;;;;;;;;;5058917;28;20020;-75
2023/12/09 12:30:48;;;;;;;;;;;;;;;;;;5061757;28;20059;-76
2023/12/09 12:33:15;;;;;;;;;;;;;;;;;;5060254;28;19928;-78
2023/12/09 12:35:41;;;;;;;;;;;;;;;;;;5058784;28;20411;-74
2023/12/09 12:38:07;;;;;;;;;;;;;;;;;;5069742;28;20017;-76
2023/12/09 12:40:34;;;;;;;;;;;;;;;;;;5058219;28;19978;-75
2023/12/09 12:43:00;;;;;;;;;;;;;;;;;;5071018;28;19925;-74
2023/12/09 12:45:27;;;;;;;;;;;;;;;;;;5068692;28;19968;-73
2023/12/09 12:47:54;;;;;;;;;;;;;;;;;;5068903;28;19959;-73
2023/12/09 12:50:24;;;;;;;;;;;;;;;;;;5066146;28;20377;-76
2023/12/09 12:52:50;;;;;;;;;;;;;;;;;;5056495;28;19931;-75
2023/12/09 12:55:17;;;;;;;;;;;;;;;;;;5063283;28;20325;-77
2023/12/09 12:57:43;;;;;;;;;;;;;;;;;;5065298;28;19925;-75
2023/12/09 13:00:14;;;;;;;;;;;;;;;;;;5066920;28;19932;-76
2023/12/09 13:02:40;;;;;;;;;;;;;;;;;;5074460;28;19929;-76
2023/12/09 13:05:07;;;;;;;;;;;;;;;;;;5081875;28;19977;-75
2023/12/09 13:07:33;;;;;;;;;;;;;;;;;;5064591;28;19925;-74
2023/12/09 13:10:00;;;;;;;;;;;;;;;;;;5065346;28;20445;-76
2023/12/09 13:12:26;;;;;;;;;;;;;;;;;;5069690;28;19928;-75
2023/12/09 13:14:53;;;;;;;;;;;;;;;;;;5066504;28;19924;-75
2023/12/09 13:17:20;;;;;;;;;;;;;;;;;;5065428;28;19925;-76
2023/12/09 13:19:46;;;;;;;;;;;;;;;;;;5072486;28;19928;-76
2023/12/09 13:22:13;;;;;;;;;;;;;;;;;;5058310;28;19924;-76
2023/12/09 13:24:39;;;;;;;;;;;;;;;;;;5069151;28;20404;-75
2023/12/09 13:27:06;;;;;;;;;;;;;;;;;;5056338;28;19939;-77
2023/12/09 13:29:32;;;;;;;;;;;;;;;;;;5064852;28;19928;-77
2023/12/09 13:31:59;;;;;;;;;;;;;;;;;;5069699;28;19924;-76
2023/12/09 13:34:28;;;;;;;;;;;;;;;;;;5060911;28;19994;-74
2023/12/09 13:36:55;;;;;;;;;;;;;;;;;;5068912;28;19964;-74
2023/12/09 13:39:25;;;;;;;;;;;;;;;;;;5061731;28;19951;-76
2023/12/09 13:41:52;;;;;;;;;;;;;;;;;;5069370;28;19925;-76
2023/12/09 13:44:18;;;;;;;;;;;;;;;;;;5068241;28;19982;-75
2023/12/09 13:46:44;;;;;;;;;;;;;;;;;;5069399;28;20301;-75
2023/12/09 13:49:11;;;;;;;;;;;;;;;;;;5064232;28;19928;-76
2023/12/09 13:51:38;;;;;;;;;;;;;;;;;;5063744;28;20019;-76
2023/12/09 13:54:04;;;;;;;;;;;;;;;;;;5073054;28;19946;-76
2023/12/09 13:56:31;;;;;;;;;;;;;;;;;;5070949;28;20403;-76
2023/12/09 13:58:57;;;;;;;;;;;;;;;;;;5060643;28;19968;-76
2023/12/09 14:01:24;;;;;;;;;;;;;;;;;;5065344;28;20030;-76
2023/12/09 14:03:50;;;;;;;;;;;;;;;;;;5066839;28;19924;-79
2023/12/09 14:06:17;;;;;;;;;;;;;;;;;;5059694;28;19928;-77
2023/12/09 14:08:44;;;;;;;;;;;;;;;;;;5062487;28;19932;-77
2023/12/09 14:11:14;;;;;;;;;;;;;;;;;;5054254;28;19925;-78
2023/12/09 14:13:40;;;;;;;;;;;;;;;;;;5049881;28;19924;-76
2023/12/09 14:16:07;;;;;;;;;;;;;;;;;;5068751;28;20057;-77
2023/12/09 14:18:33;;;;;;;;;;;;;;;;;;5046107;28;19932;-78
2023/12/09 14:20:59;;;;;;;;;;;;;;;;;;5065351;28;19994;-76
2023/12/09 14:23:27;;;;;;;;;;;;;;;;;;5064536;28;19951;-77
2023/12/09 14:25:54;;;;;;;;;;;;;;;;;;5053307;28;19924;-78
2023/12/09 14:28:20;;;;;;;;;;;;;;;;;;5053167;28;19925;-79
2023/12/09 14:30:47;;;;;;;;;;;;;;;;;;5069498;28;19972;-76
2023/12/09 14:33:13;;;;;;;;;;;;;;;;;;5064857;28;19928;-78
2023/12/09 14:35:40;;;;;;;;;;;;;;;;;;5061388;28;19925;-77
2023/12/09 14:38:08;;;;;;;;;;;;;;;;;;5070611;28;19929;-78
2023/12/09 14:40:34;;;;;;;;;;;;;;;;;;5064269;28;20019;-77
2023/12/09 14:43:06;;;;;;;;;;;;;;;;;;5061325;28;19978;-77
2023/12/09 14:45:35;;;;;;;;;;;;;;;;;;5069907;28;19956;-77
2023/12/09 14:48:02;;;;;;;;;;;;;;;;;;5063885;28;19935;-77
2023/12/09 14:50:33;;;;;;;;;;;;;;;;;;5063124;28;19925;-80
2023/12/09 14:53:00;;;;;;;;;;;;;;;;;;5075371;28;19924;-75
2023/12/09 14:55:26;;;;;;;;;;;;;;;;;;5061639;28;19994;-79
2023/12/09 14:57:53;;;;;;;;;;;;;;;;;;5065322;28;20350;-75
2023/12/09 15:00:19;;;;;;;;;;;;;;;;;;5065685;28;19925;-76
2023/12/09 15:02:46;;;;;;;;;;;;;;;;;;5065670;28;19925;-75
2023/12/09 15:05:13;;;;;;;;;;;;;;;;;;5053288;28;19942;-75
2023/12/09 15:07:39;;;;;;;;;;;;;;;;;;5059249;28;19928;-76
2023/12/09 15:10:05;;;;;;;;;;;;;;;;;;5070109;28;20412;-75
2023/12/09 15:12:32;;;;;;;;;;;;;;;;;;5062078;28;19948;-77
2023/12/09 15:15:00;;;;;;;;;;;;;;;;;;5054316;28;20433;-76
2023/12/09 15:17:28;;;;;;;;;;;;;;;;;;5068217;28;20317;-76
2023/12/09 15:19:55;;;;;;;;;;;;;;;;;;5053318;28;19928;-78
2023/12/09 15:22:24;;;;;;;;;;;;;;;;;;5066362;28;19933;-77
2023/12/09 15:24:51;;;;;;;;;;;;;;;;;;5066474;28;20673;-76
2023/12/09 15:27:17;;;;;;;;;;;;;;;;;;5062636;28;19976;-77
2023/12/09 15:29:44;;;;;;;;;;;;;;;;;;5054749;28;19929;-76
2023/12/09 15:32:10;;;;;;;;;;;;;;;;;;5063347;28;20349;-75
2023/12/09 15:34:38;;;;;;;;;;;;;;;;;;5064354;28;19932;-77
2023/12/09 15:37:04;;;;;;;;;;;;;;;;;;5074021;28;19931;-80
2023/12/09 15:39:32;;;;;;;;;;;;;;;;;;5072469;28;19925;-77
2023/12/09 15:41:59;;;;;;;;;;;;;;;;;;5067517;28;20015;-81
2023/12/09 15:44:25;;;;;;;;;;;;;;;;;;5045164;28;19928;-81
2023/12/09 15:46:53;;;;;;;;;;;;;;;;;;5074816;28;20435;-80
2023/12/09 15:49:21;;;;;;;;;;;;;;;;;;5070797;28;20320;-80
2023/12/09 15:51:51;;;;;;;;;;;;;;;;;;5072096;28;20399;-75
2023/12/09 15:54:18;;;;;;;;;;;;;;;;;;5066152;28;19968;-76
2023/12/09 15:56:44;;;;;;;;;;;;;;;;;;5063371;28;19924;-76
2023/12/09 15:59:11;;;;;;;;;;;;;;;;;;5064135;28;20324;-77
2023/12/09 16:01:37;;;;;;;;;;;;;;;;;;5071195;28;19933;-77
2023/12/09 16:04:04;;;;;;;;;;;;;;;;;;5064776;28;19967;-76
2023/12/09 16:06:30;;;;;;;;;;;;;;;;;;5050842;28;19924;-76
2023/12/09 16:08:57;;;;;;;;;;;;;;;;;;5062037;28;20348;-76
2023/12/09 16:11:23;;;;;;;;;;;;;;;;;;5070535;28;20011;-77
2023/12/09 16:13:50;;;;;;;;;;;;;;;;;;5069871;28;20852;-75
2023/12/09 16:16:16;;;;;;;;;;;;;;;;;;5059144;28;19929;-76
2023/12/09 16:18:43;;;;;;;;;;;;;;;;;;5058741;28;19924;-76
2023/12/09 16:21:09;;;;;;;;;;;;;;;;;;5063319;28;19925;-74
2023/12/09 16:23:36;;;;;;;;;;;;;;;;;;5062074;28;20002;-76
2023/12/09 16:26:04;;;;;;;;;;;;;;;;;;5057948;28;19939;-75
2023/12/09 16:28:31;;;;;;;;;;;;;;;;;;5050964;28;20009;-75
2023/12/09 16:30:57;;;;;;;;;;;;;;;;;;5064992;28;20401;-74
2023/12/09 16:33:24;;;;;;;;;;;;;;;;;;5059963;28;19932;-76
2023/12/09 16:35:50;;;;;;;;;;;;;;;;;;5049935;28;19925;-76
2023/12/09 16:38:17;;;;;;;;;;;;;;;;;;5044038;28;19942;-76
2023/12/09 16:40:43;;;;;;;;;;;;;;;;;;5052418;28;20720;-77